Aviation Digital Data Service (ADDS)

Output produced by METARs form (1127 UTC 19 January 2018)
found at http://www.aviationweather.gov/adds/metars/
 
LHUD 191045Z 22004KT 9999 FEW023 BKN083 05/02 Q1010
LHUD 191015Z 18006KT 9999 VCSH FEW023 OVC083 04/01 Q1009
LHUD 190945Z 20003KT 9999 FEW020 BKN083 03/00 Q1010 RERA
LHUD 190915Z 17005KT 9999 FEW020 SCT076 BKN083 04/00 Q1009 RERA
LHUD 190845Z 20005KT 9999 FEW016 BKN076 BKN083 02/M00 Q1009
LHUD 190815Z 19007KT CAVOK 02/M01 Q1009
LHUD 190745Z 18006KT CAVOK 02/M01 Q1009
LHUD 190715Z 20008KT CAVOK 02/M01 Q1009
LHUD 190645Z 20007KT CAVOK 02/M01 Q1009
LHUD 190615Z 25004KT CAVOK 02/M01 Q1009
LHUD 190545Z 20003KT CAVOK 01/M01 Q1008